Solomon Sea — WDE5022 — position and weather

sailwx.info

Track history (hours):
 
Tides and Currents Weather Stations Pressure Air Temp Water Temp Dewpoint Dewpoint Depression Visibility Wind Speed Wind Dir Waves Ship Positions

Solomon Sea

Owner: Kirby Offshore Marine, LLC, Staten Island, NY. More information available from US FCC via Universal Licensing System and Coast Guard Vessel Documentation Center.

Last reported at 2017-Nov-18 11:30 UTC. Time now 2017-Nov-18 11:46 UTC.
Position N 40°38' W 074°12'.

Length 29 m; draft 3.5 m.

Type: Towing. MMSI: 367360960.

Date/timePositionNaut miles runAvg speedWind from/ knotsBaromVisibWave heightAir tempDewpointWater temp
2017-Nov-18 11:30N 40°38' W 074°12'0 0.1
2017-Nov-18 11:00N 40°39' W 074°12'0 0.7
2017-Nov-18 10:30N 40°38' W 074°12'0 0.9
2017-Nov-18 09:59N 40°38' W 074°12'0 0.0
2017-Nov-18 09:30N 40°38' W 074°12'0 0.0
2017-Nov-18 09:00N 40°38' W 074°12'0 0.4
2017-Nov-18 08:30N 40°38' W 074°12'0 0.0
2017-Nov-18 08:00N 40°38' W 074°12'0 0.0
2017-Nov-18 07:30N 40°38' W 074°12'0 0.0
2017-Nov-18 07:00N 40°38' W 074°12'0 0.0
2017-Nov-18 06:30N 40°38' W 074°12'0 0.0
2017-Nov-18 06:00N 40°38' W 074°12'0 0.0
2017-Nov-18 05:30N 40°38' W 074°12'0 0.0
2017-Nov-18 05:00N 40°38' W 074°12'0 0.0
2017-Nov-18 04:30N 40°38' W 074°12'0 0.0
2017-Nov-18 04:00N 40°38' W 074°12'0 0.0
2017-Nov-18 03:30N 40°38' W 074°12'0 0.0
2017-Nov-18 03:00N 40°38' W 074°12'0 0.4
2017-Nov-18 02:29N 40°38' W 074°12'0 0.1
2017-Nov-18 02:01N 40°38' W 074°12'0 0.2
2017-Nov-18 01:09N 40°38' W 074°12'1 5.4
2017-Nov-18 01:00N 40°39' W 074°12'0 0.0
2017-Nov-18 00:30N 40°39' W 074°12'1 1.6
2017-Nov-17 23:58N 40°38' W 074°12'0 0.1
2017-Nov-17 23:16N 40°38' W 074°12'1 3.4
2017-Nov-17 23:01N 40°38' W 074°12'0 0.1
2017-Nov-17 22:30N 40°39' W 074°12'1 1.8
2017-Nov-17 22:00N 40°38' W 074°12'0 0.0
2017-Nov-17 21:17N 40°38' W 074°12'0 0.0
2017-Nov-17 20:57N 40°38' W 074°12'0 0.0
2017-Nov-17 20:21N 40°38' W 074°12'0 0.0
2017-Nov-17 19:56N 40°38' W 074°12'0 0.1
2017-Nov-17 19:29N 40°38' W 074°12'0 0.1
2017-Nov-17 19:00N 40°38' W 074°12'0 0.0
2017-Nov-17 18:30N 40°38' W 074°12'0 0.0
2017-Nov-17 18:00N 40°38' W 074°12'0 0.0
2017-Nov-17 17:30N 40°38' W 074°12'0 0.0
2017-Nov-17 16:58N 40°38' W 074°12'0 0.0
2017-Nov-17 16:30N 40°38' W 074°12'0 0.0
2017-Nov-17 16:00N 40°38' W 074°12'0 0.0
2017-Nov-17 15:28N 40°38' W 074°12'0 0.0
2017-Nov-17 14:55N 40°38' W 074°12'0 0.0
2017-Nov-17 14:30N 40°38' W 074°12'0 0.2
2017-Nov-17 13:59N 40°38' W 074°12'0 0.0
2017-Nov-17 13:28N 40°38' W 074°12'0 0.0
2017-Nov-17 12:49N 40°38' W 074°12'0 0.0
2017-Nov-17 11:40N 40°38' W 074°12'0 0.0
2017-Nov-17 11:23N 40°38' W 074°12'0 0.0
2017-Nov-17 11:00N 40°38' W 074°12'0 0.0
2017-Nov-17 10:29N 40°38' W 074°12'0 0.0
2017-Nov-17 09:08N 40°38' W 074°12'0 0.0
2017-Nov-17 08:19N 40°38' W 074°12'0 0.0
2017-Nov-17 07:53N 40°38' W 074°12'0 0.0
2017-Nov-17 07:08N 40°38' W 074°12'0 0.6
2017-Nov-17 07:00N 40°38' W 074°12'2 4.6
2017-Nov-17 06:30N 40°39' W 074°09'2 4.2
2017-Nov-17 06:00N 40°41' W 074°09'0 0.0
2017-Nov-17 05:30N 40°41' W 074°09'0 0.0
2017-Nov-17 05:00N 40°41' W 074°09'0 0.0
2017-Nov-17 04:31N 40°41' W 074°09'0 0.0
2017-Nov-17 04:00N 40°41' W 074°09'0 0.0
2017-Nov-17 03:30N 40°41' W 074°09'0 0.0
2017-Nov-17 03:00N 40°41' W 074°09'0 0.0
2017-Nov-17 02:30N 40°41' W 074°09'1 2.1
2017-Nov-17 02:00N 40°40' W 074°08'1 2.6
2017-Nov-17 01:30N 40°41' W 074°08'0 0.1
2017-Nov-17 01:00N 40°41' W 074°08'1 2.1
2017-Nov-17 00:29N 40°42' W 074°09'0 0.0
2017-Nov-17 00:00N 40°42' W 074°09'0 0.0
2017-Nov-16 23:30N 40°42' W 074°09'0 0.0
2017-Nov-16 23:01N 40°42' W 074°09'0 0.0
2017-Nov-16 22:26N 40°42' W 074°09'0 0.0
2017-Nov-16 21:59N 40°42' W 074°09'0 0.1
2017-Nov-16 21:30N 40°42' W 074°09'1 1.7
2017-Nov-16 21:00N 40°42' W 074°08'1 1.6
2017-Nov-16 20:30N 40°41' W 074°08'1 2.1
2017-Nov-16 20:00N 40°40' W 074°08'0 0.2
2017-Nov-16 19:31N 40°40' W 074°08'3 5.9
2017-Nov-16 19:00N 40°38' W 074°12'1 1.3
2017-Nov-16 18:29N 40°38' W 074°12'0 0.0
2017-Nov-16 17:28N 40°38' W 074°12'0 0.0
2017-Nov-16 16:50N 40°38' W 074°12'0 0.0
2017-Nov-16 16:09N 40°38' W 074°12'0 0.0
2017-Nov-16 15:58N 40°38' W 074°12'0 0.0
2017-Nov-16 13:28N 40°38' W 074°12'0 0.0
2017-Nov-16 13:01N 40°38' W 074°12'0 0.0
2017-Nov-16 12:31N 40°38' W 074°12'0 0.0
2017-Nov-16 10:33N 40°38' W 074°12'0 0.0
2017-Nov-16 10:23N 40°38' W 074°12'0 0.0
2017-Nov-16 10:00N 40°38' W 074°12'0 0.0
2017-Nov-16 09:29N 40°38' W 074°12'0 0.0
2017-Nov-16 08:59N 40°38' W 074°12'0 0.0
2017-Nov-16 08:30N 40°38' W 074°12'1 2.2
2017-Nov-16 08:00N 40°39' W 074°11'2 4.5
2017-Nov-16 07:30N 40°40' W 074°09'1 2.4
2017-Nov-16 07:01N 40°41' W 074°09'1 1.5
2017-Nov-16 06:30N 40°41' W 074°08'0 0.0
2017-Nov-16 03:57N 40°41' W 074°08'0 0.0
2017-Nov-16 03:30N 40°41' W 074°08'2 4.7
2017-Nov-16 03:00N 40°43' W 074°06'2 4.2
2017-Nov-16 02:30N 40°45' W 074°04'1 1.7
2017-Nov-16 02:00N 40°44' W 074°05'2 4.0
2017-Nov-16 01:31N 40°43' W 074°07'2 3.3
2017-Nov-16 01:00N 40°42' W 074°08'0 0.0
2017-Nov-16 00:14N 40°42' W 074°08'1 3.2
2017-Nov-15 23:59N 40°42' W 074°09'1 2.5
2017-Nov-15 23:30N 40°41' W 074°09'2 4.2
2017-Nov-15 22:59N 40°39' W 074°10'2 4.4
2017-Nov-15 22:31N 40°38' W 074°12'0 0.0
2017-Nov-15 21:29N 40°38' W 074°12'0 0.0
2017-Nov-15 21:00N 40°38' W 074°12'0 0.0
2017-Nov-15 20:30N 40°38' W 074°12'0 0.0
2017-Nov-15 19:55N 40°38' W 074°12'0 0.0
2017-Nov-15 19:30N 40°38' W 074°12'0 0.0
2017-Nov-15 19:00N 40°38' W 074°12'0 0.0
2017-Nov-15 18:31N 40°38' W 074°12'0 0.0
2017-Nov-15 18:00N 40°38' W 074°12'0 0.0
2017-Nov-15 17:30N 40°38' W 074°12'0 0.0
2017-Nov-15 17:00N 40°38' W 074°12'0 0.0
2017-Nov-15 15:42N 40°38' W 074°12'0 0.0
2017-Nov-15 15:22N 40°38' W 074°12'0 0.0
2017-Nov-15 14:12N 40°38' W 074°12'0 0.0
2017-Nov-15 13:54N 40°38' W 074°12'0 0.0
2017-Nov-15 13:15N 40°38' W 074°12'0 0.3
2017-Nov-15 12:55N 40°38' W 074°12'0 0.3
2017-Nov-15 12:30N 40°38' W 074°12'0 0.0
2017-Nov-15 11:59N 40°38' W 074°12'0 0.0
2017-Nov-15 11:30N 40°38' W 074°12'0 0.0
2017-Nov-15 11:00N 40°38' W 074°12'0 0.0
2017-Nov-15 10:30N 40°38' W 074°12'0 0.0
2017-Nov-15 10:00N 40°38' W 074°12'0 0.0
2017-Nov-15 09:30N 40°38' W 074°12'0 0.0
2017-Nov-15 09:00N 40°38' W 074°12'1 2.3
2017-Nov-15 08:30N 40°39' W 074°11'2 5.0
2017-Nov-15 08:00N 40°40' W 074°08'1 3.0
2017-Nov-15 07:31N 40°41' W 074°08'0 0.1
2017-Nov-15 07:00N 40°41' W 074°08'0 0.0
2017-Nov-15 06:30N 40°41' W 074°08'0 0.0
2017-Nov-15 06:00N 40°41' W 074°08'0 0.0
2017-Nov-15 05:30N 40°41' W 074°08'0 0.0
2017-Nov-15 05:00N 40°41' W 074°08'0 0.0
2017-Nov-15 04:30N 40°41' W 074°08'0 0.0
2017-Nov-15 04:00N 40°41' W 074°08'0 0.0
2017-Nov-15 03:30N 40°41' W 074°08'0 0.0
2017-Nov-15 03:00N 40°41' W 074°08'0 0.0
2017-Nov-15 02:30N 40°41' W 074°08'0 0.0
2017-Nov-15 02:00N 40°41' W 074°08'0 0.0
2017-Nov-15 01:30N 40°41' W 074°08'0 0.0
2017-Nov-15 01:00N 40°41' W 074°08'0 0.0
2017-Nov-15 00:31N 40°41' W 074°08'0 0.0
2017-Nov-14 23:55N 40°41' W 074°08'0 0.0
2017-Nov-14 23:17N 40°41' W 074°08'0 0.0
2017-Nov-14 23:00N 40°41' W 074°08'0 0.0
2017-Nov-14 22:29N 40°41' W 074°08'0 0.0
2017-Nov-14 22:00N 40°41' W 074°08'0 0.4
2017-Nov-14 21:30N 40°41' W 074°08'0 0.0
2017-Nov-14 21:00N 40°41' W 074°08'0 0.0
2017-Nov-14 20:30N 40°41' W 074°08'0 0.0
2017-Nov-14 20:00N 40°41' W 074°08'0 0.3
2017-Nov-14 19:31N 40°41' W 074°08'0 0.3
2017-Nov-14 19:00N 40°41' W 074°08'0 0.0
2017-Nov-14 18:30N 40°41' W 074°08'0 0.0
2017-Nov-14 18:00N 40°41' W 074°08'0 0.0
2017-Nov-14 17:30N 40°41' W 074°08'0 0.8
2017-Nov-14 16:59N 40°42' W 074°08'1 1.4
2017-Nov-14 16:29N 40°41' W 074°08'0 0.9
2017-Nov-14 16:00N 40°41' W 074°08'0 0.5
2017-Nov-14 15:30N 40°42' W 074°08'1 0.6
2017-Nov-14 14:08N 40°42' W 074°09'0 0.0
2017-Nov-14 13:38N 40°42' W 074°09'0 0.0
2017-Nov-14 13:29N 40°42' W 074°09'1 1.3
2017-Nov-14 12:59N 40°42' W 074°08'3 6.4
2017-Nov-14 12:30N 40°39' W 074°08'3 6.4
2017-Nov-14 12:01N 40°40' W 074°04'2 4.5
2017-Nov-14 11:30N 40°39' W 074°07'2 3.8
2017-Nov-14 11:00N 40°40' W 074°08'2 4.9
2017-Nov-14 10:30N 40°43' W 074°07'2 4.7
2017-Nov-14 10:00N 40°44' W 074°05'0 0.7
2017-Nov-14 09:30N 40°45' W 074°04'0 0.0
2017-Nov-14 09:00N 40°45' W 074°04'0 0.2
2017-Nov-14 08:30N 40°45' W 074°05'1 1.0
2017-Nov-14 08:00N 40°44' W 074°05'1 1.9
2017-Nov-14 07:31N 40°44' W 074°06'3 5.6
2017-Nov-14 07:00N 40°41' W 074°08'0 0.0
2017-Nov-14 06:30N 40°41' W 074°08'0 0.0
2017-Nov-14 05:59N 40°41' W 074°08'0 0.0
2017-Nov-14 05:29N 40°41' W 074°08'0 0.0
2017-Nov-14 05:00N 40°41' W 074°08'0 0.0
2017-Nov-14 04:30N 40°41' W 074°08'0 0.0
2017-Nov-14 04:00N 40°41' W 074°08'0 0.0
2017-Nov-14 03:30N 40°41' W 074°08'0 0.0
2017-Nov-14 03:00N 40°41' W 074°08'0 0.0
2017-Nov-14 02:30N 40°41' W 074°08'0 0.0
2017-Nov-14 02:00N 40°41' W 074°08'0 0.0
2017-Nov-14 01:30N 40°41' W 074°08'0 0.0
2017-Nov-14 01:00N 40°41' W 074°08'0 0.0
2017-Nov-14 00:30N 40°41' W 074°08'1 1.3
2017-Nov-14 00:00N 40°42' W 074°09'1 1.8
2017-Nov-13 23:31N 40°41' W 074°08'0 0.9
2017-Nov-13 23:00N 40°41' W 074°09'0 0.0
2017-Nov-13 22:30N 40°41' W 074°09'0 0.0
2017-Nov-13 22:00N 40°41' W 074°09'1 0.0
2017-Nov-13 01:59N 40°41' W 074°08'0 0.0
2017-Nov-13 01:30N 40°41' W 074°08'0 0.0
2017-Nov-13 00:59N 40°41' W 074°08'0 0.0
2017-Nov-13 00:30N 40°41' W 074°08'0 0.0
2017-Nov-12 23:59N 40°41' W 074°08'0 0.0
2017-Nov-12 23:30N 40°41' W 074°08'0 0.0
2017-Nov-12 23:00N 40°41' W 074°08'0 0.0
2017-Nov-12 22:30N 40°41' W 074°08'0 0.0
2017-Nov-12 22:00N 40°41' W 074°08'0 0.0
2017-Nov-12 21:29N 40°41' W 074°08'0 0.0
2017-Nov-12 21:00N 40°41' W 074°08'0 0.0
2017-Nov-12 20:29N 40°41' W 074°08'3 6.0
2017-Nov-12 20:00N 40°39' W 074°08'5 9.1
2017-Nov-12 19:30N 40°39' W 074°02'2 3.8
2017-Nov-12 19:01N 40°40' W 074°00'2 4.4
2017-Nov-12 18:30N 40°38' W 074°02'4 7.8
2017-Nov-12 18:00N 40°35' W 074°02'2 3.7
2017-Nov-12 17:30N 40°36' W 074°03'4 7.2
2017-Nov-12 17:00N 40°39' W 074°06'2 4.2
2017-Nov-12 16:30N 40°40' W 074°08'1 2.5
2017-Nov-12 16:00N 40°41' W 074°08'0 0.2
2017-Nov-12 15:30N 40°41' W 074°08'0 0.2
2017-Nov-12 14:59N 40°41' W 074°08'0 0.0
2017-Nov-12 14:30N 40°41' W 074°08'0 0.0
2017-Nov-12 14:00N 40°41' W 074°08'0 0.8
2017-Nov-12 13:30N 40°41' W 074°08'0 0.6
2017-Nov-12 13:00N 40°41' W 074°08'0 0.0
2017-Nov-12 12:30N 40°41' W 074°08'0 0.8
2017-Nov-12 12:00N 40°41' W 074°08'2 4.6
2017-Nov-12 11:30N 40°39' W 074°09'2 4.2
2017-Nov-12 11:00N 40°38' W 074°12'1 1.2
2017-Nov-12 10:30N 40°38' W 074°12'0 0.2
2017-Nov-12 10:00N 40°38' W 074°12'0 0.0
2017-Nov-12 09:30N 40°38' W 074°12'0 0.5
2017-Nov-12 08:58N 40°38' W 074°12'0 0.5
2017-Nov-12 08:30N 40°38' W 074°12'0 0.0
2017-Nov-12 08:00N 40°38' W 074°12'0 0.0
2017-Nov-12 07:31N 40°38' W 074°12'0 0.4
2017-Nov-12 06:54N 40°38' W 074°12'0 0.5
2017-Nov-12 06:31N 40°38' W 074°12'0 0.0
2017-Nov-12 06:00N 40°38' W 074°12'0 0.0
2017-Nov-12 05:30N 40°38' W 074°12'0 0.2
2017-Nov-12 05:00N 40°38' W 074°12'0 0.6
2017-Nov-12 04:26N 40°38' W 074°12'0 0.2
2017-Nov-12 04:00N 40°38' W 074°12'0 0.0
2017-Nov-12 03:30N 40°38' W 074°12'0 0.0
2017-Nov-12 02:50N 40°38' W 074°12'0 0.0
2017-Nov-12 02:30N 40°38' W 074°12'0 0.5
2017-Nov-12 02:00N 40°38' W 074°12'0 0.3
2017-Nov-12 01:30N 40°38' W 074°12'0 0.0
2017-Nov-12 01:00N 40°38' W 074°12'0 0.0
2017-Nov-12 00:31N 40°38' W 074°12'0 0.0
2017-Nov-12 00:00N 40°38' W 074°12'0 0.2
2017-Nov-11 23:30N 40°38' W 074°12'1 1.6
2017-Nov-11 23:01N 40°39' W 074°12'1 1.0
2017-Nov-11 22:28N 40°38' W 074°12'0 0.4
2017-Nov-11 22:00N 40°38' W 074°12'0 0.0
2017-Nov-11 21:30N 40°38' W 074°12'0 0.0
2017-Nov-11 21:00N 40°38' W 074°12'0 0.2
2017-Nov-11 20:31N 40°38' W 074°12'0 0.0
2017-Nov-11 20:00N 40°38' W 074°12'0 0.0
2017-Nov-11 19:30N 40°38' W 074°12'0 0.3
2017-Nov-11 18:59N 40°38' W 074°12'0 0.3
2017-Nov-11 18:30N 40°38' W 074°12'0 0.0
2017-Nov-11 18:00N 40°38' W 074°12'0 0.0
2017-Nov-11 17:30N 40°38' W 074°12'0 0.0
2017-Nov-11 17:00N 40°38' W 074°12'0 0.0
2017-Nov-11 16:29N 40°38' W 074°12'0 0.0
2017-Nov-11 15:59N 40°38' W 074°12'0 0.0
2017-Nov-11 15:30N 40°38' W 074°12'0 0.2
2017-Nov-11 15:00N 40°38' W 074°12'2 4.7
2017-Nov-11 14:30N 40°39' W 074°09'2 3.7
2017-Nov-11 14:00N 40°41' W 074°08'4 7.3
2017-Nov-11 13:30N 40°38' W 074°12'0 0.9
2017-Nov-11 13:00N 40°38' W 074°12'0 0.5
2017-Nov-11 12:22N 40°38' W 074°12'0 0.1
2017-Nov-11 12:00N 40°38' W 074°12'0 0.0
2017-Nov-11 11:30N 40°38' W 074°12'1 1.6
2017-Nov-11 11:00N 40°39' W 074°12'1 1.4
2017-Nov-11 10:29N 40°38' W 074°12'0 0.2
2017-Nov-11 10:00N 40°38' W 074°12'0 0.0
2017-Nov-11 09:30N 40°38' W 074°12'0 0.0
2017-Nov-11 09:00N 40°38' W 074°12'0 0.0
2017-Nov-11 08:29N 40°38' W 074°12'0 0.4
2017-Nov-11 07:57N 40°38' W 074°12'0 0.4
2017-Nov-11 07:29N 40°38' W 074°12'0 0.0
2017-Nov-11 06:59N 40°38' W 074°12'0 0.0
2017-Nov-11 06:30N 40°38' W 074°12'0 0.0
2017-Nov-11 06:00N 40°38' W 074°12'0 0.5
2017-Nov-11 05:27N 40°38' W 074°12'0 0.7
2017-Nov-11 05:00N 40°38' W 074°12'0 0.0
2017-Nov-11 04:30N 40°38' W 074°12'0 0.1
2017-Nov-11 04:01N 40°38' W 074°12'0 0.0
2017-Nov-11 03:30N 40°38' W 074°12'0 0.0
2017-Nov-11 03:00N 40°38' W 074°12'0 0.0
2017-Nov-11 02:30N 40°38' W 074°12'0 0.0
2017-Nov-11 02:00N 40°38' W 074°12'0 0.1
2017-Nov-11 01:30N 40°38' W 074°12'0 0.6
2017-Nov-11 00:57N 40°38' W 074°12'0 0.7
2017-Nov-11 00:30N 40°38' W 074°12'1 1.4
2017-Nov-10 23:59N 40°39' W 074°12'1 3.1
2017-Nov-10 23:30N 40°39' W 074°10'3 5.2
2017-Nov-10 22:58N 40°41' W 074°08'0 0.3
2017-Nov-10 22:30N 40°41' W 074°08'0 0.0
2017-Nov-10 22:00N 40°41' W 074°08'0 0.0
2017-Nov-10 21:30N 40°41' W 074°08'0 0.0
2017-Nov-10 21:00N 40°41' W 074°08'0 0.0
2017-Nov-10 20:31N 40°41' W 074°08'0 0.0
2017-Nov-10 20:00N 40°41' W 074°08'0 0.0
2017-Nov-10 19:30N 40°41' W 074°08'0 0.1
2017-Nov-10 19:00N 40°41' W 074°08'1 1.3
2017-Nov-10 18:18N 40°42' W 074°09'0 0.0
2017-Nov-10 17:59N 40°42' W 074°09'0 0.0
2017-Nov-10 16:41N 40°42' W 074°09'0 0.1
2017-Nov-10 16:30N 40°42' W 074°09'0 0.2
2017-Nov-10 16:00N 40°42' W 074°09'0 0.3
2017-Nov-10 15:30N 40°42' W 074°09'0 0.1
2017-Nov-10 15:01N 40°42' W 074°09'0 0.5
2017-Nov-10 14:30N 40°42' W 074°09'0 0.0
2017-Nov-10 13:59N 40°42' W 074°09'0 0.0
2017-Nov-10 13:29N 40°42' W 074°09'0 0.0
2017-Nov-10 11:43N 40°42' W 074°09'0 0.0
2017-Nov-10 11:11N 40°42' W 074°09'1 5.4
2017-Nov-10 11:00N 40°41' W 074°08'1 1.4
2017-Nov-10 10:30N 40°41' W 074°09'0 0.0
2017-Nov-10 10:00N 40°41' W 074°09'0 0.0
2017-Nov-10 09:30N 40°41' W 074°09'0 0.0
2017-Nov-10 09:00N 40°41' W 074°09'0 0.1
2017-Nov-10 08:30N 40°41' W 074°09'0 0.0
2017-Nov-10 08:00N 40°41' W 074°09'0 0.0
2017-Nov-10 07:30N 40°41' W 074°09'0 0.0
2017-Nov-10 07:00N 40°41' W 074°09'1 1.5
2017-Nov-10 06:30N 40°41' W 074°08'0 0.0
2017-Nov-10 06:00N 40°41' W 074°08'0 0.0
2017-Nov-10 05:30N 40°41' W 074°08'0 0.0
2017-Nov-10 05:01N 40°41' W 074°08'0 0.0
2017-Nov-10 04:30N 40°41' W 074°08'0 0.0
2017-Nov-10 04:00N 40°41' W 074°08'0 0.0
2017-Nov-10 03:30N 40°41' W 074°08'0 0.0
2017-Nov-10 03:00N 40°41' W 074°08'0 0.0
2017-Nov-10 02:31N 40°41' W 074°08'0 0.0
2017-Nov-10 02:00N 40°41' W 074°08'0 0.0
2017-Nov-10 01:30N 40°41' W 074°08'0 0.6
2017-Nov-10 01:00N 40°42' W 074°09'1 1.0
2017-Nov-10 00:30N 40°42' W 074°09'0 0.0
2017-Nov-10 00:00N 40°42' W 074°09'2 4.0
2017-Nov-09 23:30N 40°40' W 074°08'4 5.2
2017-Nov-09 22:47N 40°38' W 074°12'0 0.0
2017-Nov-09 21:31N 40°38' W 074°12'0 0.0
2017-Nov-09 21:17N 40°38' W 074°12'0 0.0
2017-Nov-09 20:59N 40°38' W 074°12'0 0.0
2017-Nov-09 20:24N 40°38' W 074°12'0 0.1
2017-Nov-09 19:57N 40°38' W 074°12'0 0.0
2017-Nov-09 19:26N 40°38' W 074°12'0 0.0
2017-Nov-09 18:58N 40°38' W 074°12'0 0.0
2017-Nov-09 16:20N 40°38' W 074°12'0 0.2
2017-Nov-09 15:58N 40°38' W 074°12'0 0.1
2017-Nov-09 15:26N 40°38' W 074°12'0 0.0
2017-Nov-09 14:58N 40°38' W 074°12'0 0.4
2017-Nov-09 14:30N 40°38' W 074°12'0 0.1
2017-Nov-09 13:59N 40°38' W 074°12'0 0.0
2017-Nov-09 13:30N 40°38' W 074°12'0 0.0
2017-Nov-09 13:00N 40°38' W 074°12'0 0.0
2017-Nov-09 12:30N 40°38' W 074°12'0 0.0
2017-Nov-09 12:00N 40°38' W 074°12'0 0.7
2017-Nov-09 11:30N 40°38' W 074°12'0 0.8
2017-Nov-09 10:59N 40°39' W 074°12'0 0.0
2017-Nov-09 10:31N 40°39' W 074°12'1 1.6
2017-Nov-09 10:00N 40°38' W 074°12'0 0.5
2017-Nov-09 09:30N 40°38' W 074°12'0 0.6
2017-Nov-09 08:54N 40°38' W 074°12'0 0.0
2017-Nov-09 08:30N 40°38' W 074°12'0 0.0
2017-Nov-09 07:28N 40°38' W 074°12'0 0.6
2017-Nov-09 07:00N 40°38' W 074°12'0 0.6
2017-Nov-09 06:30N 40°38' W 074°12'0 0.6
2017-Nov-09 06:00N 40°38' W 074°12'0 0.0
2017-Nov-09 05:30N 40°38' W 074°12'0 0.0
2017-Nov-09 05:00N 40°38' W 074°12'0 0.5
2017-Nov-09 04:26N 40°38' W 074°12'0 0.0
2017-Nov-09 03:59N 40°38' W 074°12'0 0.0
2017-Nov-09 03:29N 40°38' W 074°12'0 0.1
2017-Nov-09 02:58N 40°38' W 074°12'0 0.7
2017-Nov-09 02:30N 40°38' W 074°12'0 0.2
2017-Nov-09 02:00N 40°38' W 074°12'0 0.0
2017-Nov-09 01:29N 40°38' W 074°12'0 0.0
2017-Nov-09 01:00N 40°38' W 074°12'0 0.0
2017-Nov-09 00:31N 40°38' W 074°12'0 0.0
2017-Nov-09 00:00N 40°38' W 074°12'1 1.6
2017-Nov-08 23:30N 40°38' W 074°12'0 0.0
2017-Nov-08 23:00N 40°39' W 074°12'1 1.5
2017-Nov-08 22:30N 40°38' W 074°12'0 0.4
2017-Nov-08 22:00N 40°38' W 074°12'0 0.0
2017-Nov-08 21:20N 40°38' W 074°12'0 0.0
2017-Nov-08 21:00N 40°38' W 074°12'0 0.0
2017-Nov-08 20:24N 40°38' W 074°12'0 0.1
2017-Nov-08 19:58N 40°38' W 074°12'0 0.1
2017-Nov-08 19:29N 40°38' W 074°12'0 0.0
2017-Nov-08 18:57N 40°38' W 074°12'0 0.0
2017-Nov-08 18:23N 40°38' W 074°12'0 0.0
2017-Nov-08 18:01N 40°38' W 074°12'1 1.6
2017-Nov-08 17:29N 40°39' W 074°12'1 1.8
2017-Nov-08 17:00N 40°38' W 074°12'0 0.0
2017-Nov-08 16:28N 40°38' W 074°12'0 0.0
2017-Nov-08 15:42N 40°38' W 074°12'0 0.0
2017-Nov-08 15:29N 40°38' W 074°12'0 0.0
2017-Nov-08 15:00N 40°38' W 074°12'0 0.0
2017-Nov-08 14:19N 40°38' W 074°12'0 0.7
2017-Nov-08 14:00N 40°38' W 074°12'0 0.1
2017-Nov-08 13:30N 40°38' W 074°12'0 0.0
2017-Nov-08 13:00N 40°38' W 074°12'0 0.0
2017-Nov-08 12:30N 40°38' W 074°12'0 0.7
2017-Nov-08 12:00N 40°38' W 074°12'0 0.5
2017-Nov-08 11:30N 40°38' W 074°12'  
Track history (hours):
 
Tides and Currents Weather Stations Pressure Air Temp Water Temp Dewpoint Dewpoint Depression Visibility Wind Speed Wind Dir Waves Ship Positions

Solomon Sea

Owner: Kirby Offshore Marine, LLC, Staten Island, NY. More information available from US FCC via Universal Licensing System and Coast Guard Vessel Documentation Center.

Last reported at 2017-Nov-18 11:30 UTC. Time now 2017-Nov-18 11:46 UTC.
Position N 40°38' W 074°12'.

Length 29 m; draft 3.5 m.

Type: Towing. MMSI: 367360960.

Date/timePositionNaut miles runAvg speedWind from/ knotsBaromVisibWave heightAir tempDewpointWater temp
2017-Nov-18 11:30N 40°38' W 074°12'0 0.1
2017-Nov-18 11:00N 40°39' W 074°12'0 0.7
2017-Nov-18 10:30N 40°38' W 074°12'0 0.9
2017-Nov-18 09:59N 40°38' W 074°12'0 0.0
2017-Nov-18 09:30N 40°38' W 074°12'0 0.0
2017-Nov-18 09:00N 40°38' W 074°12'0 0.4
2017-Nov-18 08:30N 40°38' W 074°12'0 0.0
2017-Nov-18 08:00N 40°38' W 074°12'0 0.0
2017-Nov-18 07:30N 40°38' W 074°12'0 0.0
2017-Nov-18 07:00N 40°38' W 074°12'0 0.0
2017-Nov-18 06:30N 40°38' W 074°12'0 0.0
2017-Nov-18 06:00N 40°38' W 074°12'0 0.0
2017-Nov-18 05:30N 40°38' W 074°12'0 0.0
2017-Nov-18 05:00N 40°38' W 074°12'0 0.0
2017-Nov-18 04:30N 40°38' W 074°12'0 0.0
2017-Nov-18 04:00N 40°38' W 074°12'0 0.0
2017-Nov-18 03:30N 40°38' W 074°12'0 0.0
2017-Nov-18 03:00N 40°38' W 074°12'0 0.4
2017-Nov-18 02:29N 40°38' W 074°12'0 0.1
2017-Nov-18 02:01N 40°38' W 074°12'0 0.2
2017-Nov-18 01:09N 40°38' W 074°12'1 5.4
2017-Nov-18 01:00N 40°39' W 074°12'0 0.0
2017-Nov-18 00:30N 40°39' W 074°12'1 1.6
2017-Nov-17 23:58N 40°38' W 074°12'0 0.1
2017-Nov-17 23:16N 40°38' W 074°12'1 3.4
2017-Nov-17 23:01N 40°38' W 074°12'0 0.1
2017-Nov-17 22:30N 40°39' W 074°12'1 1.8
2017-Nov-17 22:00N 40°38' W 074°12'0 0.0
2017-Nov-17 21:17N 40°38' W 074°12'0 0.0
2017-Nov-17 20:57N 40°38' W 074°12'0 0.0
2017-Nov-17 20:21N 40°38' W 074°12'0 0.0
2017-Nov-17 19:56N 40°38' W 074°12'0 0.1
2017-Nov-17 19:29N 40°38' W 074°12'0 0.1
2017-Nov-17 19:00N 40°38' W 074°12'0 0.0
2017-Nov-17 18:30N 40°38' W 074°12'0 0.0
2017-Nov-17 18:00N 40°38' W 074°12'0 0.0
2017-Nov-17 17:30N 40°38' W 074°12'0 0.0
2017-Nov-17 16:58N 40°38' W 074°12'0 0.0
2017-Nov-17 16:30N 40°38' W 074°12'0 0.0
2017-Nov-17 16:00N 40°38' W 074°12'0 0.0
2017-Nov-17 15:28N 40°38' W 074°12'0 0.0
2017-Nov-17 14:55N 40°38' W 074°12'0 0.0
2017-Nov-17 14:30N 40°38' W 074°12'0 0.2
2017-Nov-17 13:59N 40°38' W 074°12'0 0.0
2017-Nov-17 13:28N 40°38' W 074°12'0 0.0
2017-Nov-17 12:49N 40°38' W 074°12'0 0.0
2017-Nov-17 11:40N 40°38' W 074°12'0 0.0
2017-Nov-17 11:23N 40°38' W 074°12'0 0.0
2017-Nov-17 11:00N 40°38' W 074°12'0 0.0
2017-Nov-17 10:29N 40°38' W 074°12'0 0.0
2017-Nov-17 09:08N 40°38' W 074°12'0 0.0
2017-Nov-17 08:19N 40°38' W 074°12'0 0.0
2017-Nov-17 07:53N 40°38' W 074°12'0 0.0
2017-Nov-17 07:08N 40°38' W 074°12'0 0.6
2017-Nov-17 07:00N 40°38' W 074°12'2 4.6
2017-Nov-17 06:30N 40°39' W 074°09'2 4.2
2017-Nov-17 06:00N 40°41' W 074°09'0 0.0
2017-Nov-17 05:30N 40°41' W 074°09'0 0.0
2017-Nov-17 05:00N 40°41' W 074°09'0 0.0
2017-Nov-17 04:31N 40°41' W 074°09'0 0.0
2017-Nov-17 04:00N 40°41' W 074°09'0 0.0
2017-Nov-17 03:30N 40°41' W 074°09'0 0.0
2017-Nov-17 03:00N 40°41' W 074°09'0 0.0
2017-Nov-17 02:30N 40°41' W 074°09'1 2.1
2017-Nov-17 02:00N 40°40' W 074°08'1 2.6
2017-Nov-17 01:30N 40°41' W 074°08'0 0.1
2017-Nov-17 01:00N 40°41' W 074°08'1 2.1
2017-Nov-17 00:29N 40°42' W 074°09'0 0.0
2017-Nov-17 00:00N 40°42' W 074°09'0 0.0
2017-Nov-16 23:30N 40°42' W 074°09'0 0.0
2017-Nov-16 23:01N 40°42' W 074°09'0 0.0
2017-Nov-16 22:26N 40°42' W 074°09'0 0.0
2017-Nov-16 21:59N 40°42' W 074°09'0 0.1
2017-Nov-16 21:30N 40°42' W 074°09'1 1.7
2017-Nov-16 21:00N 40°42' W 074°08'1 1.6
2017-Nov-16 20:30N 40°41' W 074°08'1 2.1
2017-Nov-16 20:00N 40°40' W 074°08'0 0.2
2017-Nov-16 19:31N 40°40' W 074°08'3 5.9
2017-Nov-16 19:00N 40°38' W 074°12'1 1.3
2017-Nov-16 18:29N 40°38' W 074°12'0 0.0
2017-Nov-16 17:28N 40°38' W 074°12'0 0.0
2017-Nov-16 16:50N 40°38' W 074°12'0 0.0
2017-Nov-16 16:09N 40°38' W 074°12'0 0.0
2017-Nov-16 15:58N 40°38' W 074°12'0 0.0
2017-Nov-16 13:28N 40°38' W 074°12'0 0.0
2017-Nov-16 13:01N 40°38' W 074°12'0 0.0
2017-Nov-16 12:31N 40°38' W 074°12'0 0.0
2017-Nov-16 10:33N 40°38' W 074°12'0 0.0
2017-Nov-16 10:23N 40°38' W 074°12'0 0.0
2017-Nov-16 10:00N 40°38' W 074°12'0 0.0
2017-Nov-16 09:29N 40°38' W 074°12'0 0.0
2017-Nov-16 08:59N 40°38' W 074°12'0 0.0
2017-Nov-16 08:30N 40°38' W 074°12'1 2.2
2017-Nov-16 08:00N 40°39' W 074°11'2 4.5
2017-Nov-16 07:30N 40°40' W 074°09'1 2.4
2017-Nov-16 07:01N 40°41' W 074°09'1 1.5
2017-Nov-16 06:30N 40°41' W 074°08'0 0.0
2017-Nov-16 03:57N 40°41' W 074°08'0 0.0
2017-Nov-16 03:30N 40°41' W 074°08'2 4.7
2017-Nov-16 03:00N 40°43' W 074°06'2 4.2
2017-Nov-16 02:30N 40°45' W 074°04'1 1.7
2017-Nov-16 02:00N 40°44' W 074°05'2 4.0
2017-Nov-16 01:31N 40°43' W 074°07'2 3.3
2017-Nov-16 01:00N 40°42' W 074°08'0 0.0
2017-Nov-16 00:14N 40°42' W 074°08'1 3.2
2017-Nov-15 23:59N 40°42' W 074°09'1 2.5
2017-Nov-15 23:30N 40°41' W 074°09'2 4.2
2017-Nov-15 22:59N 40°39' W 074°10'2 4.4
2017-Nov-15 22:31N 40°38' W 074°12'0 0.0
2017-Nov-15 21:29N 40°38' W 074°12'0 0.0
2017-Nov-15 21:00N 40°38' W 074°12'0 0.0
2017-Nov-15 20:30N 40°38' W 074°12'0 0.0
2017-Nov-15 19:55N 40°38' W 074°12'0 0.0
2017-Nov-15 19:30N 40°38' W 074°12'0 0.0
2017-Nov-15 19:00N 40°38' W 074°12'0 0.0
2017-Nov-15 18:31N 40°38' W 074°12'0 0.0
2017-Nov-15 18:00N 40°38' W 074°12'0 0.0
2017-Nov-15 17:30N 40°38' W 074°12'0 0.0
2017-Nov-15 17:00N 40°38' W 074°12'0 0.0
2017-Nov-15 15:42N 40°38' W 074°12'0 0.0
2017-Nov-15 15:22N 40°38' W 074°12'0 0.0
2017-Nov-15 14:12N 40°38' W 074°12'0 0.0
2017-Nov-15 13:54N 40°38' W 074°12'0 0.0
2017-Nov-15 13:15N 40°38' W 074°12'0 0.3
2017-Nov-15 12:55N 40°38' W 074°12'0 0.3
2017-Nov-15 12:30N 40°38' W 074°12'0 0.0
2017-Nov-15 11:59N 40°38' W 074°12'0 0.0
2017-Nov-15 11:30N 40°38' W 074°12'0 0.0
2017-Nov-15 11:00N 40°38' W 074°12'0 0.0
2017-Nov-15 10:30N 40°38' W 074°12'0 0.0
2017-Nov-15 10:00N 40°38' W 074°12'0 0.0
2017-Nov-15 09:30N 40°38' W 074°12'0 0.0
2017-Nov-15 09:00N 40°38' W 074°12'1 2.3
2017-Nov-15 08:30N 40°39' W 074°11'2 5.0
2017-Nov-15 08:00N 40°40' W 074°08'1 3.0
2017-Nov-15 07:31N 40°41' W 074°08'0 0.1
2017-Nov-15 07:00N 40°41' W 074°08'0 0.0
2017-Nov-15 06:30N 40°41' W 074°08'0 0.0
2017-Nov-15 06:00N 40°41' W 074°08'0 0.0
2017-Nov-15 05:30N 40°41' W 074°08'0 0.0
2017-Nov-15 05:00N 40°41' W 074°08'0 0.0
2017-Nov-15 04:30N 40°41' W 074°08'0 0.0
2017-Nov-15 04:00N 40°41' W 074°08'0 0.0
2017-Nov-15 03:30N 40°41' W 074°08'0 0.0
2017-Nov-15 03:00N 40°41' W 074°08'0 0.0
2017-Nov-15 02:30N 40°41' W 074°08'0 0.0
2017-Nov-15 02:00N 40°41' W 074°08'0 0.0
2017-Nov-15 01:30N 40°41' W 074°08'0 0.0
2017-Nov-15 01:00N 40°41' W 074°08'0 0.0
2017-Nov-15 00:31N 40°41' W 074°08'0 0.0
2017-Nov-14 23:55N 40°41' W 074°08'0 0.0
2017-Nov-14 23:17N 40°41' W 074°08'0 0.0
2017-Nov-14 23:00N 40°41' W 074°08'0 0.0
2017-Nov-14 22:29N 40°41' W 074°08'0 0.0
2017-Nov-14 22:00N 40°41' W 074°08'0 0.4
2017-Nov-14 21:30N 40°41' W 074°08'0 0.0
2017-Nov-14 21:00N 40°41' W 074°08'0 0.0
2017-Nov-14 20:30N 40°41' W 074°08'0 0.0
2017-Nov-14 20:00N 40°41' W 074°08'0 0.3
2017-Nov-14 19:31N 40°41' W 074°08'0 0.3
2017-Nov-14 19:00N 40°41' W 074°08'0 0.0
2017-Nov-14 18:30N 40°41' W 074°08'0 0.0
2017-Nov-14 18:00N 40°41' W 074°08'0 0.0
2017-Nov-14 17:30N 40°41' W 074°08'0 0.8
2017-Nov-14 16:59N 40°42' W 074°08'1 1.4
2017-Nov-14 16:29N 40°41' W 074°08'0 0.9
2017-Nov-14 16:00N 40°41' W 074°08'0 0.5
2017-Nov-14 15:30N 40°42' W 074°08'1 0.6
2017-Nov-14 14:08N 40°42' W 074°09'0 0.0
2017-Nov-14 13:38N 40°42' W 074°09'0 0.0
2017-Nov-14 13:29N 40°42' W 074°09'1 1.3
2017-Nov-14 12:59N 40°42' W 074°08'3 6.4
2017-Nov-14 12:30N 40°39' W 074°08'3 6.4
2017-Nov-14 12:01N 40°40' W 074°04'2 4.5
2017-Nov-14 11:30N 40°39' W 074°07'2 3.8
2017-Nov-14 11:00N 40°40' W 074°08'2 4.9
2017-Nov-14 10:30N 40°43' W 074°07'2 4.7
2017-Nov-14 10:00N 40°44' W 074°05'0 0.7
2017-Nov-14 09:30N 40°45' W 074°04'0 0.0
2017-Nov-14 09:00N 40°45' W 074°04'0 0.2
2017-Nov-14 08:30N 40°45' W 074°05'1 1.0
2017-Nov-14 08:00N 40°44' W 074°05'1 1.9
2017-Nov-14 07:31N 40°44' W 074°06'3 5.6
2017-Nov-14 07:00N 40°41' W 074°08'0 0.0
2017-Nov-14 06:30N 40°41' W 074°08'0 0.0
2017-Nov-14 05:59N 40°41' W 074°08'0 0.0
2017-Nov-14 05:29N 40°41' W 074°08'0 0.0
2017-Nov-14 05:00N 40°41' W 074°08'0 0.0
2017-Nov-14 04:30N 40°41' W 074°08'0 0.0
2017-Nov-14 04:00N 40°41' W 074°08'0 0.0
2017-Nov-14 03:30N 40°41' W 074°08'0 0.0
2017-Nov-14 03:00N 40°41' W 074°08'0 0.0
2017-Nov-14 02:30N 40°41' W 074°08'0 0.0
2017-Nov-14 02:00N 40°41' W 074°08'0 0.0
2017-Nov-14 01:30N 40°41' W 074°08'0 0.0
2017-Nov-14 01:00N 40°41' W 074°08'0 0.0
2017-Nov-14 00:30N 40°41' W 074°08'1 1.3
2017-Nov-14 00:00N 40°42' W 074°09'1 1.8
2017-Nov-13 23:31N 40°41' W 074°08'0 0.9
2017-Nov-13 23:00N 40°41' W 074°09'0 0.0
2017-Nov-13 22:30N 40°41' W 074°09'0 0.0
2017-Nov-13 22:00N 40°41' W 074°09'1 0.0
2017-Nov-13 01:59N 40°41' W 074°08'0 0.0
2017-Nov-13 01:30N 40°41' W 074°08'0 0.0
2017-Nov-13 00:59N 40°41' W 074°08'0 0.0
2017-Nov-13 00:30N 40°41' W 074°08'0 0.0
2017-Nov-12 23:59N 40°41' W 074°08'0 0.0
2017-Nov-12 23:30N 40°41' W 074°08'0 0.0
2017-Nov-12 23:00N 40°41' W 074°08'0 0.0
2017-Nov-12 22:30N 40°41' W 074°08'0 0.0
2017-Nov-12 22:00N 40°41' W 074°08'0 0.0
2017-Nov-12 21:29N 40°41' W 074°08'0 0.0
2017-Nov-12 21:00N 40°41' W 074°08'0 0.0
2017-Nov-12 20:29N 40°41' W 074°08'3 6.0
2017-Nov-12 20:00N 40°39' W 074°08'5 9.1
2017-Nov-12 19:30N 40°39' W 074°02'2 3.8
2017-Nov-12 19:01N 40°40' W 074°00'2 4.4
2017-Nov-12 18:30N 40°38' W 074°02'4 7.8
2017-Nov-12 18:00N 40°35' W 074°02'2 3.7
2017-Nov-12 17:30N 40°36' W 074°03'4 7.2
2017-Nov-12 17:00N 40°39' W 074°06'2 4.2
2017-Nov-12 16:30N 40°40' W 074°08'1 2.5
2017-Nov-12 16:00N 40°41' W 074°08'0 0.2
2017-Nov-12 15:30N 40°41' W 074°08'0 0.2
2017-Nov-12 14:59N 40°41' W 074°08'0 0.0
2017-Nov-12 14:30N 40°41' W 074°08'0 0.0
2017-Nov-12 14:00N 40°41' W 074°08'0 0.8
2017-Nov-12 13:30N 40°41' W 074°08'0 0.6
2017-Nov-12 13:00N 40°41' W 074°08'0 0.0
2017-Nov-12 12:30N 40°41' W 074°08'0 0.8
2017-Nov-12 12:00N 40°41' W 074°08'2 4.6
2017-Nov-12 11:30N 40°39' W 074°09'2 4.2
2017-Nov-12 11:00N 40°38' W 074°12'1 1.2
2017-Nov-12 10:30N 40°38' W 074°12'0 0.2
2017-Nov-12 10:00N 40°38' W 074°12'0 0.0
2017-Nov-12 09:30N 40°38' W 074°12'0 0.5
2017-Nov-12 08:58N 40°38' W 074°12'0 0.5
2017-Nov-12 08:30N 40°38' W 074°12'0 0.0
2017-Nov-12 08:00N 40°38' W 074°12'0 0.0
2017-Nov-12 07:31N 40°38' W 074°12'0 0.4
2017-Nov-12 06:54N 40°38' W 074°12'0 0.5
2017-Nov-12 06:31N 40°38' W 074°12'0 0.0
2017-Nov-12 06:00N 40°38' W 074°12'0 0.0
2017-Nov-12 05:30N 40°38' W 074°12'0 0.2
2017-Nov-12 05:00N 40°38' W 074°12'0 0.6
2017-Nov-12 04:26N 40°38' W 074°12'0 0.2
2017-Nov-12 04:00N 40°38' W 074°12'0 0.0
2017-Nov-12 03:30N 40°38' W 074°12'0 0.0
2017-Nov-12 02:50N 40°38' W 074°12'0 0.0
2017-Nov-12 02:30N 40°38' W 074°12'0 0.5
2017-Nov-12 02:00N 40°38' W 074°12'0 0.3
2017-Nov-12 01:30N 40°38' W 074°12'0 0.0
2017-Nov-12 01:00N 40°38' W 074°12'0 0.0
2017-Nov-12 00:31N 40°38' W 074°12'0 0.0
2017-Nov-12 00:00N 40°38' W 074°12'0 0.2
2017-Nov-11 23:30N 40°38' W 074°12'1 1.6
2017-Nov-11 23:01N 40°39' W 074°12'1 1.0
2017-Nov-11 22:28N 40°38' W 074°12'0 0.4
2017-Nov-11 22:00N 40°38' W 074°12'0 0.0
2017-Nov-11 21:30N 40°38' W 074°12'0 0.0
2017-Nov-11 21:00N 40°38' W 074°12'0 0.2
2017-Nov-11 20:31N 40°38' W 074°12'0 0.0
2017-Nov-11 20:00N 40°38' W 074°12'0 0.0
2017-Nov-11 19:30N 40°38' W 074°12'0 0.3
2017-Nov-11 18:59N 40°38' W 074°12'0 0.3
2017-Nov-11 18:30N 40°38' W 074°12'0 0.0
2017-Nov-11 18:00N 40°38' W 074°12'0 0.0
2017-Nov-11 17:30N 40°38' W 074°12'0 0.0
2017-Nov-11 17:00N 40°38' W 074°12'0 0.0
2017-Nov-11 16:29N 40°38' W 074°12'0 0.0
2017-Nov-11 15:59N 40°38' W 074°12'0 0.0
2017-Nov-11 15:30N 40°38' W 074°12'0 0.2
2017-Nov-11 15:00N 40°38' W 074°12'2 4.7
2017-Nov-11 14:30N 40°39' W 074°09'2 3.7
2017-Nov-11 14:00N 40°41' W 074°08'4 7.3
2017-Nov-11 13:30N 40°38' W 074°12'0 0.9
2017-Nov-11 13:00N 40°38' W 074°12'0 0.5
2017-Nov-11 12:22N 40°38' W 074°12'0 0.1
2017-Nov-11 12:00N 40°38' W 074°12'0 0.0
2017-Nov-11 11:30N 40°38' W 074°12'1 1.6
2017-Nov-11 11:00N 40°39' W 074°12'1 1.4
2017-Nov-11 10:29N 40°38' W 074°12'0 0.2
2017-Nov-11 10:00N 40°38' W 074°12'0 0.0
2017-Nov-11 09:30N 40°38' W 074°12'0 0.0
2017-Nov-11 09:00N 40°38' W 074°12'0 0.0
2017-Nov-11 08:29N 40°38' W 074°12'0 0.4
2017-Nov-11 07:57N 40°38' W 074°12'0 0.4
2017-Nov-11 07:29N 40°38' W 074°12'0 0.0
2017-Nov-11 06:59N 40°38' W 074°12'0 0.0
2017-Nov-11 06:30N 40°38' W 074°12'0 0.0
2017-Nov-11 06:00N 40°38' W 074°12'0 0.5
2017-Nov-11 05:27N 40°38' W 074°12'0 0.7
2017-Nov-11 05:00N 40°38' W 074°12'0 0.0
2017-Nov-11 04:30N 40°38' W 074°12'0 0.1
2017-Nov-11 04:01N 40°38' W 074°12'0 0.0
2017-Nov-11 03:30N 40°38' W 074°12'0 0.0
2017-Nov-11 03:00N 40°38' W 074°12'0 0.0
2017-Nov-11 02:30N 40°38' W 074°12'0 0.0
2017-Nov-11 02:00N 40°38' W 074°12'0 0.1
2017-Nov-11 01:30N 40°38' W 074°12'0 0.6
2017-Nov-11 00:57N 40°38' W 074°12'0 0.7
2017-Nov-11 00:30N 40°38' W 074°12'1 1.4
2017-Nov-10 23:59N 40°39' W 074°12'1 3.1
2017-Nov-10 23:30N 40°39' W 074°10'3 5.2
2017-Nov-10 22:58N 40°41' W 074°08'0 0.3
2017-Nov-10 22:30N 40°41' W 074°08'0 0.0
2017-Nov-10 22:00N 40°41' W 074°08'0 0.0
2017-Nov-10 21:30N 40°41' W 074°08'0 0.0
2017-Nov-10 21:00N 40°41' W 074°08'0 0.0
2017-Nov-10 20:31N 40°41' W 074°08'0 0.0
2017-Nov-10 20:00N 40°41' W 074°08'0 0.0
2017-Nov-10 19:30N 40°41' W 074°08'0 0.1
2017-Nov-10 19:00N 40°41' W 074°08'1 1.3
2017-Nov-10 18:18N 40°42' W 074°09'0 0.0
2017-Nov-10 17:59N 40°42' W 074°09'0 0.0
2017-Nov-10 16:41N 40°42' W 074°09'0 0.1
2017-Nov-10 16:30N 40°42' W 074°09'0 0.2
2017-Nov-10 16:00N 40°42' W 074°09'0 0.3
2017-Nov-10 15:30N 40°42' W 074°09'0 0.1
2017-Nov-10 15:01N 40°42' W 074°09'0 0.5
2017-Nov-10 14:30N 40°42' W 074°09'0 0.0
2017-Nov-10 13:59N 40°42' W 074°09'0 0.0
2017-Nov-10 13:29N 40°42' W 074°09'0 0.0
2017-Nov-10 11:43N 40°42' W 074°09'0 0.0
2017-Nov-10 11:11N 40°42' W 074°09'1 5.4
2017-Nov-10 11:00N 40°41' W 074°08'1 1.4
2017-Nov-10 10:30N 40°41' W 074°09'0 0.0
2017-Nov-10 10:00N 40°41' W 074°09'0 0.0
2017-Nov-10 09:30N 40°41' W 074°09'0 0.0
2017-Nov-10 09:00N 40°41' W 074°09'0 0.1
2017-Nov-10 08:30N 40°41' W 074°09'0 0.0
2017-Nov-10 08:00N 40°41' W 074°09'0 0.0
2017-Nov-10 07:30N 40°41' W 074°09'0 0.0
2017-Nov-10 07:00N 40°41' W 074°09'1 1.5
2017-Nov-10 06:30N 40°41' W 074°08'0 0.0
2017-Nov-10 06:00N 40°41' W 074°08'0 0.0
2017-Nov-10 05:30N 40°41' W 074°08'0 0.0
2017-Nov-10 05:01N 40°41' W 074°08'0 0.0
2017-Nov-10 04:30N 40°41' W 074°08'0 0.0
2017-Nov-10 04:00N 40°41' W 074°08'0 0.0
2017-Nov-10 03:30N 40°41' W 074°08'0 0.0
2017-Nov-10 03:00N 40°41' W 074°08'0 0.0
2017-Nov-10 02:31N 40°41' W 074°08'0 0.0
2017-Nov-10 02:00N 40°41' W 074°08'0 0.0
2017-Nov-10 01:30N 40°41' W 074°08'0 0.6
2017-Nov-10 01:00N 40°42' W 074°09'1 1.0
2017-Nov-10 00:30N 40°42' W 074°09'0 0.0
2017-Nov-10 00:00N 40°42' W 074°09'2 4.0
2017-Nov-09 23:30N 40°40' W 074°08'4 5.2
2017-Nov-09 22:47N 40°38' W 074°12'0 0.0
2017-Nov-09 21:31N 40°38' W 074°12'0 0.0
2017-Nov-09 21:17N 40°38' W 074°12'0 0.0
2017-Nov-09 20:59N 40°38' W 074°12'0 0.0
2017-Nov-09 20:24N 40°38' W 074°12'0 0.1
2017-Nov-09 19:57N 40°38' W 074°12'0 0.0
2017-Nov-09 19:26N 40°38' W 074°12'0 0.0
2017-Nov-09 18:58N 40°38' W 074°12'0 0.0
2017-Nov-09 16:20N 40°38' W 074°12'0 0.2
2017-Nov-09 15:58N 40°38' W 074°12'0 0.1
2017-Nov-09 15:26N 40°38' W 074°12'0 0.0
2017-Nov-09 14:58N 40°38' W 074°12'0 0.4
2017-Nov-09 14:30N 40°38' W 074°12'0 0.1
2017-Nov-09 13:59N 40°38' W 074°12'0 0.0
2017-Nov-09 13:30N 40°38' W 074°12'0 0.0
2017-Nov-09 13:00N 40°38' W 074°12'0 0.0
2017-Nov-09 12:30N 40°38' W 074°12'0 0.0
2017-Nov-09 12:00N 40°38' W 074°12'0 0.7
2017-Nov-09 11:30N 40°38' W 074°12'0 0.8
2017-Nov-09 10:59N 40°39' W 074°12'0 0.0
2017-Nov-09 10:31N 40°39' W 074°12'1 1.6
2017-Nov-09 10:00N 40°38' W 074°12'0 0.5
2017-Nov-09 09:30N 40°38' W 074°12'0 0.6
2017-Nov-09 08:54N 40°38' W 074°12'0 0.0
2017-Nov-09 08:30N 40°38' W 074°12'0 0.0
2017-Nov-09 07:28N 40°38' W 074°12'0 0.6
2017-Nov-09 07:00N 40°38' W 074°12'0 0.6
2017-Nov-09 06:30N 40°38' W 074°12'0 0.6
2017-Nov-09 06:00N 40°38' W 074°12'0 0.0
2017-Nov-09 05:30N 40°38' W 074°12'0 0.0
2017-Nov-09 05:00N 40°38' W 074°12'0 0.5
2017-Nov-09 04:26N 40°38' W 074°12'0 0.0
2017-Nov-09 03:59N 40°38' W 074°12'0 0.0
2017-Nov-09 03:29N 40°38' W 074°12'0 0.1
2017-Nov-09 02:58N 40°38' W 074°12'0 0.7
2017-Nov-09 02:30N 40°38' W 074°12'0 0.2
2017-Nov-09 02:00N 40°38' W 074°12'0 0.0
2017-Nov-09 01:29N 40°38' W 074°12'0 0.0
2017-Nov-09 01:00N 40°38' W 074°12'0 0.0
2017-Nov-09 00:31N 40°38' W 074°12'0 0.0
2017-Nov-09 00:00N 40°38' W 074°12'1 1.6
2017-Nov-08 23:30N 40°38' W 074°12'0 0.0
2017-Nov-08 23:00N 40°39' W 074°12'1 1.5
2017-Nov-08 22:30N 40°38' W 074°12'0 0.4
2017-Nov-08 22:00N 40°38' W 074°12'0 0.0
2017-Nov-08 21:20N 40°38' W 074°12'0 0.0
2017-Nov-08 21:00N 40°38' W 074°12'0 0.0
2017-Nov-08 20:24N 40°38' W 074°12'0 0.1
2017-Nov-08 19:58N 40°38' W 074°12'0 0.1
2017-Nov-08 19:29N 40°38' W 074°12'0 0.0
2017-Nov-08 18:57N 40°38' W 074°12'0 0.0
2017-Nov-08 18:23N 40°38' W 074°12'0 0.0
2017-Nov-08 18:01N 40°38' W 074°12'1 1.6
2017-Nov-08 17:29N 40°39' W 074°12'1 1.8
2017-Nov-08 17:00N 40°38' W 074°12'0 0.0
2017-Nov-08 16:28N 40°38' W 074°12'0 0.0
2017-Nov-08 15:42N 40°38' W 074°12'0 0.0
2017-Nov-08 15:29N 40°38' W 074°12'0 0.0
2017-Nov-08 15:00N 40°38' W 074°12'0 0.0
2017-Nov-08 14:19N 40°38' W 074°12'0 0.7
2017-Nov-08 14:00N 40°38' W 074°12'0 0.1
2017-Nov-08 13:30N 40°38' W 074°12'0 0.0
2017-Nov-08 13:00N 40°38' W 074°12'0 0.0
2017-Nov-08 12:30N 40°38' W 074°12'0 0.7
2017-Nov-08 12:00N 40°38' W 074°12'0 0.5
2017-Nov-08 11:30N 40°38' W 074°12'  

Dump ship's entire track history